sensor_id;sensor_type;location;lat;lon;timestamp;P1;durP1;ratioP1;P2;durP2;ratioP2
4961;SDS011;2496;52.468;13.342;2022-12-18T00:01:13;44.60;;;14.37;;
4961;SDS011;2496;52.468;13.342;2022-12-18T00:03:42;36.83;;;15.67;;
4961;SDS011;2496;52.468;13.342;2022-12-18T00:06:10;36.07;;;13.60;;
4961;SDS011;2496;52.468;13.342;2022-12-18T00:08:39;41.53;;;14.53;;
4961;SDS011;2496;52.468;13.342;2022-12-18T00:11:07;46.00;;;16.50;;
4961;SDS011;2496;52.468;13.342;2022-12-18T00:13:39;38.13;;;14.23;;
4961;SDS011;2496;52.468;13.342;2022-12-18T00:16:07;39.33;;;14.57;;
4961;SDS011;2496;52.468;13.342;2022-12-18T00:18:35;32.57;;;13.27;;
4961;SDS011;2496;52.468;13.342;2022-12-18T00:21:05;39.33;;;13.53;;
4961;SDS011;2496;52.468;13.342;2022-12-18T00:23:33;35.67;;;14.63;;
4961;SDS011;2496;52.468;13.342;2022-12-18T00:26:01;48.73;;;13.17;;
4961;SDS011;2496;52.468;13.342;2022-12-18T00:28:29;44.53;;;16.10;;
4961;SDS011;2496;52.468;13.342;2022-12-18T00:31:01;45.77;;;16.70;;
4961;SDS011;2496;52.468;13.342;2022-12-18T00:33:28;40.03;;;16.77;;
4961;SDS011;2496;52.468;13.342;2022-12-18T00:35:59;49.73;;;15.10;;
4961;SDS011;2496;52.468;13.342;2022-12-18T00:38:27;43.27;;;16.57;;
4961;SDS011;2496;52.468;13.342;2022-12-18T00:40:56;40.60;;;14.87;;
4961;SDS011;2496;52.468;13.342;2022-12-18T00:43:23;34.10;;;13.77;;
4961;SDS011;2496;52.468;13.342;2022-12-18T00:45:50;45.00;;;15.77;;
4961;SDS011;2496;52.468;13.342;2022-12-18T00:48:18;48.33;;;17.60;;
4961;SDS011;2496;52.468;13.342;2022-12-18T00:50:46;45.43;;;17.80;;
4961;SDS011;2496;52.468;13.342;2022-12-18T00:53:15;40.93;;;15.30;;
4961;SDS011;2496;52.468;13.342;2022-12-18T00:55:44;46.60;;;16.40;;
4961;SDS011;2496;52.468;13.342;2022-12-18T00:58:12;48.53;;;16.93;;
4961;SDS011;2496;52.468;13.342;2022-12-18T01:00:41;43.83;;;18.13;;
4961;SDS011;2496;52.468;13.342;2022-12-18T01:03:09;50.37;;;16.90;;
4961;SDS011;2496;52.468;13.342;2022-12-18T01:05:40;49.67;;;15.60;;
4961;SDS011;2496;52.468;13.342;2022-12-18T01:08:08;36.60;;;17.43;;
4961;SDS011;2496;52.468;13.342;2022-12-18T01:10:35;50.53;;;17.83;;
4961;SDS011;2496;52.468;13.342;2022-12-18T01:13:03;43.77;;;17.67;;
4961;SDS011;2496;52.468;13.342;2022-12-18T01:15:30;45.50;;;18.13;;
4961;SDS011;2496;52.468;13.342;2022-12-18T01:17:57;40.00;;;15.77;;
4961;SDS011;2496;52.468;13.342;2022-12-18T01:20:24;48.43;;;16.47;;
4961;SDS011;2496;52.468;13.342;2022-12-18T01:22:53;39.97;;;15.37;;
4961;SDS011;2496;52.468;13.342;2022-12-18T01:25:20;44.67;;;15.27;;
4961;SDS011;2496;52.468;13.342;2022-12-18T01:27:47;37.47;;;14.87;;
4961;SDS011;2496;52.468;13.342;2022-12-18T01:30:15;49.00;;;18.20;;
4961;SDS011;2496;52.468;13.342;2022-12-18T01:32:42;44.23;;;16.60;;
4961;SDS011;2496;52.468;13.342;2022-12-18T01:35:09;45.23;;;16.40;;
4961;SDS011;2496;52.468;13.342;2022-12-18T01:37:36;35.20;;;13.30;;
4961;SDS011;2496;52.468;13.342;2022-12-18T01:40:05;45.87;;;16.43;;
4961;SDS011;2496;52.468;13.342;2022-12-18T01:42:34;41.17;;;15.27;;
4961;SDS011;2496;52.468;13.342;2022-12-18T01:45:06;42.63;;;16.30;;
4961;SDS011;2496;52.468;13.342;2022-12-18T01:47:49;44.23;;;15.70;;
4961;SDS011;2496;52.468;13.342;2022-12-18T01:50:19;38.07;;;17.97;;
4961;SDS011;2496;52.468;13.342;2022-12-18T01:52:49;48.63;;;16.27;;
4961;SDS011;2496;52.468;13.342;2022-12-18T01:55:20;40.07;;;15.30;;
4961;SDS011;2496;52.468;13.342;2022-12-18T01:57:50;43.20;;;16.80;;
4961;SDS011;2496;52.468;13.342;2022-12-18T02:00:20;41.63;;;15.57;;
4961;SDS011;2496;52.468;13.342;2022-12-18T02:02:50;41.50;;;13.90;;
4961;SDS011;2496;52.468;13.342;2022-12-18T02:05:17;40.53;;;14.83;;
4961;SDS011;2496;52.468;13.342;2022-12-18T02:07:52;38.90;;;13.40;;
4961;SDS011;2496;52.468;13.342;2022-12-18T02:10:31;44.93;;;15.70;;
4961;SDS011;2496;52.468;13.342;2022-12-18T02:13:07;42.13;;;16.63;;
4961;SDS011;2496;52.468;13.342;2022-12-18T02:15:41;37.50;;;16.50;;
4961;SDS011;2496;52.468;13.342;2022-12-18T02:18:17;44.57;;;15.63;;
4961;SDS011;2496;52.468;13.342;2022-12-18T02:20:47;43.30;;;15.50;;
4961;SDS011;2496;52.468;13.342;2022-12-18T02:23:24;44.63;;;15.87;;
4961;SDS011;2496;52.468;13.342;2022-12-18T02:26:15;42.70;;;17.60;;
4961;SDS011;2496;52.468;13.342;2022-12-18T02:28:45;48.97;;;16.90;;
4961;SDS011;2496;52.468;13.342;2022-12-18T02:31:16;43.23;;;14.63;;
4961;SDS011;2496;52.468;13.342;2022-12-18T02:33:47;50.83;;;16.20;;
4961;SDS011;2496;52.468;13.342;2022-12-18T02:36:17;39.83;;;16.57;;
4961;SDS011;2496;52.468;13.342;2022-12-18T02:38:47;35.13;;;14.83;;
4961;SDS011;2496;52.468;13.342;2022-12-18T02:41:17;46.50;;;15.37;;
4961;SDS011;2496;52.468;13.342;2022-12-18T02:43:48;35.70;;;15.07;;
4961;SDS011;2496;52.468;13.342;2022-12-18T02:46:30;38.57;;;13.23;;
4961;SDS011;2496;52.468;13.342;2022-12-18T02:49:03;36.97;;;13.80;;
4961;SDS011;2496;52.468;13.342;2022-12-18T02:51:39;33.63;;;14.63;;
4961;SDS011;2496;52.468;13.342;2022-12-18T02:54:17;34.40;;;14.23;;
4961;SDS011;2496;52.468;13.342;2022-12-18T02:56:57;48.93;;;17.33;;
4961;SDS011;2496;52.468;13.342;2022-12-18T02:59:33;43.67;;;15.70;;
4961;SDS011;2496;52.468;13.342;2022-12-18T03:02:07;39.90;;;15.23;;
4961;SDS011;2496;52.468;13.342;2022-12-18T03:04:43;50.17;;;15.77;;
4961;SDS011;2496;52.468;13.342;2022-12-18T03:07:15;39.27;;;15.47;;
4961;SDS011;2496;52.468;13.342;2022-12-18T03:09:47;44.10;;;14.73;;
4961;SDS011;2496;52.468;13.342;2022-12-18T03:12:18;45.67;;;17.50;;
4961;SDS011;2496;52.468;13.342;2022-12-18T03:14:51;48.33;;;15.27;;
4961;SDS011;2496;52.468;13.342;2022-12-18T03:17:22;42.57;;;16.00;;
4961;SDS011;2496;52.468;13.342;2022-12-18T03:19:52;37.47;;;12.73;;
4961;SDS011;2496;52.468;13.342;2022-12-18T03:22:24;45.30;;;16.47;;
4961;SDS011;2496;52.468;13.342;2022-12-18T03:24:56;44.53;;;16.60;;
4961;SDS011;2496;52.468;13.342;2022-12-18T03:27:26;48.30;;;15.90;;
4961;SDS011;2496;52.468;13.342;2022-12-18T03:29:59;40.13;;;14.93;;
4961;SDS011;2496;52.468;13.342;2022-12-18T03:32:33;51.53;;;16.20;;
4961;SDS011;2496;52.468;13.342;2022-12-18T03:35:07;51.43;;;17.20;;
4961;SDS011;2496;52.468;13.342;2022-12-18T03:37:37;36.10;;;15.40;;
4961;SDS011;2496;52.468;13.342;2022-12-18T03:40:05;54.47;;;16.87;;
4961;SDS011;2496;52.468;13.342;2022-12-18T03:42:36;39.10;;;14.73;;
4961;SDS011;2496;52.468;13.342;2022-12-18T03:45:12;46.90;;;17.53;;
4961;SDS011;2496;52.468;13.342;2022-12-18T03:47:46;57.47;;;17.90;;
4961;SDS011;2496;52.468;13.342;2022-12-18T03:50:26;50.33;;;15.93;;
4961;SDS011;2496;52.468;13.342;2022-12-18T03:53:04;40.20;;;14.33;;
4961;SDS011;2496;52.468;13.342;2022-12-18T03:55:40;44.47;;;14.93;;
4961;SDS011;2496;52.468;13.342;2022-12-18T03:58:10;64.77;;;19.40;;
4961;SDS011;2496;52.468;13.342;2022-12-18T04:00:42;58.73;;;19.00;;
4961;SDS011;2496;52.468;13.342;2022-12-18T04:03:10;62.03;;;19.30;;
4961;SDS011;2496;52.468;13.342;2022-12-18T04:05:38;58.87;;;19.90;;
4961;SDS011;2496;52.468;13.342;2022-12-18T04:08:07;55.97;;;21.37;;
4961;SDS011;2496;52.468;13.342;2022-12-18T04:10:34;57.47;;;21.50;;
4961;SDS011;2496;52.468;13.342;2022-12-18T04:13:02;63.93;;;21.93;;
4961;SDS011;2496;52.468;13.342;2022-12-18T04:15:30;46.00;;;16.27;;
4961;SDS011;2496;52.468;13.342;2022-12-18T04:18:01;73.80;;;20.10;;
4961;SDS011;2496;52.468;13.342;2022-12-18T04:20:29;55.70;;;18.87;;
4961;SDS011;2496;52.468;13.342;2022-12-18T04:22:56;64.23;;;20.37;;
4961;SDS011;2496;52.468;13.342;2022-12-18T04:25:23;59.07;;;21.13;;
4961;SDS011;2496;52.468;13.342;2022-12-18T04:27:50;60.57;;;21.73;;
4961;SDS011;2496;52.468;13.342;2022-12-18T04:30:18;64.20;;;21.77;;
4961;SDS011;2496;52.468;13.342;2022-12-18T04:32:47;76.20;;;24.50;;
4961;SDS011;2496;52.468;13.342;2022-12-18T04:35:15;62.87;;;18.57;;
4961;SDS011;2496;52.468;13.342;2022-12-18T04:37:42;65.03;;;22.20;;
4961;SDS011;2496;52.468;13.342;2022-12-18T04:40:09;69.60;;;21.63;;
4961;SDS011;2496;52.468;13.342;2022-12-18T04:42:38;70.27;;;21.73;;
4961;SDS011;2496;52.468;13.342;2022-12-18T04:45:06;76.83;;;21.13;;
4961;SDS011;2496;52.468;13.342;2022-12-18T04:47:33;72.90;;;22.13;;
4961;SDS011;2496;52.468;13.342;2022-12-18T04:50:03;84.17;;;24.80;;
4961;SDS011;2496;52.468;13.342;2022-12-18T04:52:31;56.13;;;20.90;;
4961;SDS011;2496;52.468;13.342;2022-12-18T04:54:58;75.63;;;23.27;;
4961;SDS011;2496;52.468;13.342;2022-12-18T04:57:26;83.70;;;23.60;;
4961;SDS011;2496;52.468;13.342;2022-12-18T04:59:53;93.10;;;25.37;;
4961;SDS011;2496;52.468;13.342;2022-12-18T05:02:20;68.23;;;24.67;;
4961;SDS011;2496;52.468;13.342;2022-12-18T05:04:47;63.43;;;22.57;;
4961;SDS011;2496;52.468;13.342;2022-12-18T05:07:16;67.50;;;23.40;;
4961;SDS011;2496;52.468;13.342;2022-12-18T05:09:43;69.63;;;25.77;;
4961;SDS011;2496;52.468;13.342;2022-12-18T05:12:10;75.47;;;24.90;;
4961;SDS011;2496;52.468;13.342;2022-12-18T05:14:37;65.30;;;23.17;;
4961;SDS011;2496;52.468;13.342;2022-12-18T05:17:05;63.87;;;22.70;;
4961;SDS011;2496;52.468;13.342;2022-12-18T05:19:32;56.27;;;19.40;;
4961;SDS011;2496;52.468;13.342;2022-12-18T05:21:59;79.57;;;23.27;;
4961;SDS011;2496;52.468;13.342;2022-12-18T05:24:28;73.47;;;23.40;;
4961;SDS011;2496;52.468;13.342;2022-12-18T05:26:59;76.83;;;23.10;;
4961;SDS011;2496;52.468;13.342;2022-12-18T05:29:29;74.07;;;23.30;;
4961;SDS011;2496;52.468;13.342;2022-12-18T05:31:56;81.13;;;24.13;;
4961;SDS011;2496;52.468;13.342;2022-12-18T05:34:23;83.27;;;28.63;;
4961;SDS011;2496;52.468;13.342;2022-12-18T05:36:50;76.27;;;27.03;;
4961;SDS011;2496;52.468;13.342;2022-12-18T05:39:18;85.87;;;27.83;;
4961;SDS011;2496;52.468;13.342;2022-12-18T05:41:47;80.37;;;25.40;;
4961;SDS011;2496;52.468;13.342;2022-12-18T05:44:14;68.80;;;24.60;;
4961;SDS011;2496;52.468;13.342;2022-12-18T05:46:41;73.00;;;23.47;;
4961;SDS011;2496;52.468;13.342;2022-12-18T05:49:09;96.33;;;26.20;;
4961;SDS011;2496;52.468;13.342;2022-12-18T05:51:36;72.30;;;25.40;;
4961;SDS011;2496;52.468;13.342;2022-12-18T05:54:03;71.43;;;23.87;;
4961;SDS011;2496;52.468;13.342;2022-12-18T05:56:30;82.73;;;26.70;;
4961;SDS011;2496;52.468;13.342;2022-12-18T05:58:59;77.43;;;23.73;;
4961;SDS011;2496;52.468;13.342;2022-12-18T06:01:26;73.97;;;24.63;;
4961;SDS011;2496;52.468;13.342;2022-12-18T06:03:53;71.33;;;20.47;;
4961;SDS011;2496;52.468;13.342;2022-12-18T06:06:23;76.23;;;26.40;;
4961;SDS011;2496;52.468;13.342;2022-12-18T06:08:51;78.17;;;25.13;;
4961;SDS011;2496;52.468;13.342;2022-12-18T06:11:20;81.37;;;23.33;;
4961;SDS011;2496;52.468;13.342;2022-12-18T06:13:49;71.47;;;25.07;;
4961;SDS011;2496;52.468;13.342;2022-12-18T06:16:19;82.70;;;23.63;;
4961;SDS011;2496;52.468;13.342;2022-12-18T06:18:46;84.63;;;24.93;;
4961;SDS011;2496;52.468;13.342;2022-12-18T06:21:13;98.10;;;27.60;;
4961;SDS011;2496;52.468;13.342;2022-12-18T06:23:41;74.20;;;28.47;;
4961;SDS011;2496;52.468;13.342;2022-12-18T06:26:09;76.77;;;27.53;;
4961;SDS011;2496;52.468;13.342;2022-12-18T06:28:37;76.97;;;26.10;;
4961;SDS011;2496;52.468;13.342;2022-12-18T06:31:04;83.33;;;26.50;;
4961;SDS011;2496;52.468;13.342;2022-12-18T06:33:34;73.40;;;26.13;;
4961;SDS011;2496;52.468;13.342;2022-12-18T06:36:02;84.87;;;24.40;;
4961;SDS011;2496;52.468;13.342;2022-12-18T06:38:31;68.67;;;22.30;;
4961;SDS011;2496;52.468;13.342;2022-12-18T06:40:59;59.70;;;22.80;;
4961;SDS011;2496;52.468;13.342;2022-12-18T06:43:26;59.20;;;19.53;;
4961;SDS011;2496;52.468;13.342;2022-12-18T06:45:57;58.83;;;21.57;;
4961;SDS011;2496;52.468;13.342;2022-12-18T06:48:26;66.43;;;23.10;;
4961;SDS011;2496;52.468;13.342;2022-12-18T06:50:54;73.80;;;25.40;;
4961;SDS011;2496;52.468;13.342;2022-12-18T06:53:21;83.80;;;22.87;;
4961;SDS011;2496;52.468;13.342;2022-12-18T06:55:49;80.53;;;27.00;;
4961;SDS011;2496;52.468;13.342;2022-12-18T06:58:16;71.93;;;22.60;;
4961;SDS011;2496;52.468;13.342;2022-12-18T07:00:43;69.63;;;23.30;;
4961;SDS011;2496;52.468;13.342;2022-12-18T07:03:10;78.13;;;24.67;;
4961;SDS011;2496;52.468;13.342;2022-12-18T07:05:39;76.03;;;23.63;;
4961;SDS011;2496;52.468;13.342;2022-12-18T07:08:08;65.97;;;20.33;;
4961;SDS011;2496;52.468;13.342;2022-12-18T07:10:40;62.37;;;20.93;;
4961;SDS011;2496;52.468;13.342;2022-12-18T07:13:07;64.97;;;21.33;;
4961;SDS011;2496;52.468;13.342;2022-12-18T07:15:34;68.30;;;23.97;;
4961;SDS011;2496;52.468;13.342;2022-12-18T07:18:01;69.50;;;22.47;;
4961;SDS011;2496;52.468;13.342;2022-12-18T07:20:29;61.97;;;21.10;;
4961;SDS011;2496;52.468;13.342;2022-12-18T07:22:56;76.43;;;23.77;;
4961;SDS011;2496;52.468;13.342;2022-12-18T07:25:24;54.27;;;19.37;;
4961;SDS011;2496;52.468;13.342;2022-12-18T07:27:51;52.33;;;16.40;;
4961;SDS011;2496;52.468;13.342;2022-12-18T07:30:18;52.80;;;16.93;;
4961;SDS011;2496;52.468;13.342;2022-12-18T07:32:45;60.77;;;20.20;;
4961;SDS011;2496;52.468;13.342;2022-12-18T07:35:12;47.57;;;19.37;;
4961;SDS011;2496;52.468;13.342;2022-12-18T07:37:39;46.27;;;16.47;;
4961;SDS011;2496;52.468;13.342;2022-12-18T07:40:06;45.33;;;18.47;;
4961;SDS011;2496;52.468;13.342;2022-12-18T07:42:36;60.17;;;19.23;;
4961;SDS011;2496;52.468;13.342;2022-12-18T07:45:03;47.47;;;17.77;;
4961;SDS011;2496;52.468;13.342;2022-12-18T07:47:33;43.10;;;15.93;;
4961;SDS011;2496;52.468;13.342;2022-12-18T07:50:00;45.30;;;14.30;;
4961;SDS011;2496;52.468;13.342;2022-12-18T07:52:27;41.87;;;16.70;;
4961;SDS011;2496;52.468;13.342;2022-12-18T07:54:54;43.67;;;17.40;;
4961;SDS011;2496;52.468;13.342;2022-12-18T07:57:21;48.30;;;16.80;;
4961;SDS011;2496;52.468;13.342;2022-12-18T07:59:50;45.53;;;17.10;;
4961;SDS011;2496;52.468;13.342;2022-12-18T08:02:17;49.07;;;18.27;;
4961;SDS011;2496;52.468;13.342;2022-12-18T08:04:44;48.60;;;17.77;;
4961;SDS011;2496;52.468;13.342;2022-12-18T08:07:10;64.33;;;21.23;;
4961;SDS011;2496;52.468;13.342;2022-12-18T08:09:37;55.37;;;18.50;;
4961;SDS011;2496;52.468;13.342;2022-12-18T08:12:05;49.60;;;17.43;;
4961;SDS011;2496;52.468;13.342;2022-12-18T08:14:32;46.40;;;16.50;;
4961;SDS011;2496;52.468;13.342;2022-12-18T08:17:00;47.10;;;17.00;;
4961;SDS011;2496;52.468;13.342;2022-12-18T08:19:27;48.43;;;17.13;;
4961;SDS011;2496;52.468;13.342;2022-12-18T08:21:54;49.30;;;17.43;;
4961;SDS011;2496;52.468;13.342;2022-12-18T08:24:22;53.30;;;19.13;;
4961;SDS011;2496;52.468;13.342;2022-12-18T08:26:49;59.27;;;18.63;;
4961;SDS011;2496;52.468;13.342;2022-12-18T08:29:16;71.53;;;18.70;;
4961;SDS011;2496;52.468;13.342;2022-12-18T08:31:43;56.73;;;17.43;;
4961;SDS011;2496;52.468;13.342;2022-12-18T08:34:11;59.60;;;17.27;;
4961;SDS011;2496;52.468;13.342;2022-12-18T08:36:38;61.33;;;18.57;;
4961;SDS011;2496;52.468;13.342;2022-12-18T08:39:05;57.00;;;18.20;;
4961;SDS011;2496;52.468;13.342;2022-12-18T08:41:32;41.60;;;15.90;;
4961;SDS011;2496;52.468;13.342;2022-12-18T08:43:59;58.27;;;19.03;;
4961;SDS011;2496;52.468;13.342;2022-12-18T08:46:43;51.33;;;18.37;;
4961;SDS011;2496;52.468;13.342;2022-12-18T08:49:11;39.90;;;14.67;;
4961;SDS011;2496;52.468;13.342;2022-12-18T08:51:39;46.17;;;17.23;;
4961;SDS011;2496;52.468;13.342;2022-12-18T08:54:06;49.57;;;16.43;;
4961;SDS011;2496;52.468;13.342;2022-12-18T08:56:33;43.07;;;17.47;;
4961;SDS011;2496;52.468;13.342;2022-12-18T08:59:00;44.53;;;16.90;;
4961;SDS011;2496;52.468;13.342;2022-12-18T09:01:27;47.30;;;18.77;;
4961;SDS011;2496;52.468;13.342;2022-12-18T09:03:54;52.93;;;17.63;;
4961;SDS011;2496;52.468;13.342;2022-12-18T09:06:23;59.80;;;18.53;;
4961;SDS011;2496;52.468;13.342;2022-12-18T09:08:51;55.83;;;17.20;;
4961;SDS011;2496;52.468;13.342;2022-12-18T09:11:19;41.70;;;16.80;;
4961;SDS011;2496;52.468;13.342;2022-12-18T09:13:48;44.03;;;16.80;;
4961;SDS011;2496;52.468;13.342;2022-12-18T09:16:15;60.10;;;15.97;;
4961;SDS011;2496;52.468;13.342;2022-12-18T09:18:43;51.60;;;17.67;;
4961;SDS011;2496;52.468;13.342;2022-12-18T09:21:11;45.83;;;16.40;;
4961;SDS011;2496;52.468;13.342;2022-12-18T09:23:40;55.43;;;16.67;;
4961;SDS011;2496;52.468;13.342;2022-12-18T09:26:08;38.47;;;15.73;;
4961;SDS011;2496;52.468;13.342;2022-12-18T09:28:35;46.10;;;17.30;;
4961;SDS011;2496;52.468;13.342;2022-12-18T09:31:05;37.77;;;15.53;;
4961;SDS011;2496;52.468;13.342;2022-12-18T09:33:34;46.10;;;16.50;;
4961;SDS011;2496;52.468;13.342;2022-12-18T09:36:02;46.80;;;16.40;;
4961;SDS011;2496;52.468;13.342;2022-12-18T09:38:31;52.83;;;16.50;;
4961;SDS011;2496;52.468;13.342;2022-12-18T09:41:03;46.67;;;15.60;;
4961;SDS011;2496;52.468;13.342;2022-12-18T09:43:34;40.67;;;16.47;;
4961;SDS011;2496;52.468;13.342;2022-12-18T09:46:06;37.53;;;14.80;;
4961;SDS011;2496;52.468;13.342;2022-12-18T09:48:38;52.50;;;16.47;;
4961;SDS011;2496;52.468;13.342;2022-12-18T09:51:10;52.00;;;16.37;;
4961;SDS011;2496;52.468;13.342;2022-12-18T09:53:41;43.67;;;17.70;;
4961;SDS011;2496;52.468;13.342;2022-12-18T09:56:16;55.03;;;18.33;;
4961;SDS011;2496;52.468;13.342;2022-12-18T09:58:48;48.27;;;15.70;;
4961;SDS011;2496;52.468;13.342;2022-12-18T10:01:21;41.50;;;15.97;;
4961;SDS011;2496;52.468;13.342;2022-12-18T10:03:49;42.33;;;15.87;;
4961;SDS011;2496;52.468;13.342;2022-12-18T10:06:18;40.60;;;16.90;;
4961;SDS011;2496;52.468;13.342;2022-12-18T10:08:51;43.93;;;16.03;;
4961;SDS011;2496;52.468;13.342;2022-12-18T10:11:28;46.60;;;14.73;;
4961;SDS011;2496;52.468;13.342;2022-12-18T10:14:06;37.57;;;14.70;;
4961;SDS011;2496;52.468;13.342;2022-12-18T10:16:40;47.70;;;15.77;;
4961;SDS011;2496;52.468;13.342;2022-12-18T10:19:20;40.97;;;16.17;;
4961;SDS011;2496;52.468;13.342;2022-12-18T10:22:00;53.00;;;17.70;;
4961;SDS011;2496;52.468;13.342;2022-12-18T10:24:39;43.93;;;16.60;;
4961;SDS011;2496;52.468;13.342;2022-12-18T10:27:14;41.90;;;15.63;;
4961;SDS011;2496;52.468;13.342;2022-12-18T10:29:43;39.13;;;15.90;;
4961;SDS011;2496;52.468;13.342;2022-12-18T10:32:13;40.57;;;16.17;;
4961;SDS011;2496;52.468;13.342;2022-12-18T10:34:44;48.10;;;16.23;;
4961;SDS011;2496;52.468;13.342;2022-12-18T10:37:12;47.37;;;17.27;;
4961;SDS011;2496;52.468;13.342;2022-12-18T10:39:42;44.50;;;16.20;;
4961;SDS011;2496;52.468;13.342;2022-12-18T10:42:10;42.13;;;17.47;;
4961;SDS011;2496;52.468;13.342;2022-12-18T10:44:43;44.60;;;16.90;;
4961;SDS011;2496;52.468;13.342;2022-12-18T10:47:12;37.73;;;16.23;;
4961;SDS011;2496;52.468;13.342;2022-12-18T10:49:42;45.23;;;15.00;;
4961;SDS011;2496;52.468;13.342;2022-12-18T10:52:17;49.27;;;17.70;;
4961;SDS011;2496;52.468;13.342;2022-12-18T10:54:49;47.30;;;15.80;;
4961;SDS011;2496;52.468;13.342;2022-12-18T10:57:29;40.57;;;15.53;;
4961;SDS011;2496;52.468;13.342;2022-12-18T11:00:03;33.00;;;14.03;;
4961;SDS011;2496;52.468;13.342;2022-12-18T11:02:48;51.47;;;17.77;;
4961;SDS011;2496;52.468;13.342;2022-12-18T11:05:25;39.23;;;15.33;;
4961;SDS011;2496;52.468;13.342;2022-12-18T11:07:54;42.00;;;16.60;;
4961;SDS011;2496;52.468;13.342;2022-12-18T11:10:23;47.67;;;16.60;;
4961;SDS011;2496;52.468;13.342;2022-12-18T11:12:54;37.83;;;15.30;;
4961;SDS011;2496;52.468;13.342;2022-12-18T11:15:23;50.30;;;18.00;;
4961;SDS011;2496;52.468;13.342;2022-12-18T11:17:54;46.10;;;17.37;;
4961;SDS011;2496;52.468;13.342;2022-12-18T11:20:27;58.83;;;19.27;;
4961;SDS011;2496;52.468;13.342;2022-12-18T11:22:59;45.60;;;16.43;;
4961;SDS011;2496;52.468;13.342;2022-12-18T11:25:27;49.13;;;18.23;;
4961;SDS011;2496;52.468;13.342;2022-12-18T11:27:55;39.20;;;17.60;;
4961;SDS011;2496;52.468;13.342;2022-12-18T11:30:26;50.47;;;16.37;;
4961;SDS011;2496;52.468;13.342;2022-12-18T11:33:01;49.00;;;18.40;;
4961;SDS011;2496;52.468;13.342;2022-12-18T11:35:35;41.27;;;17.70;;
4961;SDS011;2496;52.468;13.342;2022-12-18T11:38:10;48.83;;;18.80;;
4961;SDS011;2496;52.468;13.342;2022-12-18T11:40:45;54.97;;;18.77;;
4961;SDS011;2496;52.468;13.342;2022-12-18T11:43:19;49.13;;;16.17;;
4961;SDS011;2496;52.468;13.342;2022-12-18T11:45:53;53.97;;;17.90;;
4961;SDS011;2496;52.468;13.342;2022-12-18T11:48:23;43.83;;;17.40;;
4961;SDS011;2496;52.468;13.342;2022-12-18T11:50:54;51.40;;;18.00;;
4961;SDS011;2496;52.468;13.342;2022-12-18T11:53:22;43.87;;;16.53;;
4961;SDS011;2496;52.468;13.342;2022-12-18T11:55:56;47.13;;;17.57;;
4961;SDS011;2496;52.468;13.342;2022-12-18T11:58:36;39.50;;;15.00;;
4961;SDS011;2496;52.468;13.342;2022-12-18T12:01:18;51.80;;;16.23;;
4961;SDS011;2496;52.468;13.342;2022-12-18T12:04:08;54.17;;;17.57;;
4961;SDS011;2496;52.468;13.342;2022-12-18T12:06:57;58.40;;;19.47;;
4961;SDS011;2496;52.468;13.342;2022-12-18T12:09:34;41.67;;;18.70;;
4961;SDS011;2496;52.468;13.342;2022-12-18T12:12:11;46.03;;;17.20;;
4961;SDS011;2496;52.468;13.342;2022-12-18T12:14:53;51.13;;;19.03;;
4961;SDS011;2496;52.468;13.342;2022-12-18T12:17:32;36.80;;;16.03;;
4961;SDS011;2496;52.468;13.342;2022-12-18T12:20:06;45.87;;;17.03;;
4961;SDS011;2496;52.468;13.342;2022-12-18T12:22:41;42.60;;;16.70;;
4961;SDS011;2496;52.468;13.342;2022-12-18T12:25:18;41.27;;;16.73;;
4961;SDS011;2496;52.468;13.342;2022-12-18T12:27:52;45.07;;;18.83;;
4961;SDS011;2496;52.468;13.342;2022-12-18T12:30:30;49.60;;;19.20;;
4961;SDS011;2496;52.468;13.342;2022-12-18T12:33:09;42.97;;;16.87;;
4961;SDS011;2496;52.468;13.342;2022-12-18T12:35:46;36.63;;;16.77;;
4961;SDS011;2496;52.468;13.342;2022-12-18T12:38:22;33.47;;;16.00;;
4961;SDS011;2496;52.468;13.342;2022-12-18T12:40:52;34.17;;;15.73;;
4961;SDS011;2496;52.468;13.342;2022-12-18T12:43:30;41.93;;;16.77;;
4961;SDS011;2496;52.468;13.342;2022-12-18T12:46:02;38.63;;;15.70;;
4961;SDS011;2496;52.468;13.342;2022-12-18T12:48:35;43.13;;;17.53;;
4961;SDS011;2496;52.468;13.342;2022-12-18T12:51:08;42.83;;;15.77;;
4961;SDS011;2496;52.468;13.342;2022-12-18T12:53:40;43.33;;;18.60;;
4961;SDS011;2496;52.468;13.342;2022-12-18T12:56:08;38.63;;;17.97;;
4961;SDS011;2496;52.468;13.342;2022-12-18T12:58:40;39.17;;;17.67;;
4961;SDS011;2496;52.468;13.342;2022-12-18T13:01:14;48.47;;;17.73;;
4961;SDS011;2496;52.468;13.342;2022-12-18T13:03:54;40.40;;;17.87;;
4961;SDS011;2496;52.468;13.342;2022-12-18T13:06:36;38.47;;;16.40;;
4961;SDS011;2496;52.468;13.342;2022-12-18T13:09:08;46.03;;;19.27;;
4961;SDS011;2496;52.468;13.342;2022-12-18T13:11:36;45.30;;;20.27;;
4961;SDS011;2496;52.468;13.342;2022-12-18T13:14:23;42.43;;;17.00;;
4961;SDS011;2496;52.468;13.342;2022-12-18T13:19:42;43.80;;;18.53;;
4961;SDS011;2496;52.468;13.342;2022-12-18T13:22:20;44.43;;;20.07;;
4961;SDS011;2496;52.468;13.342;2022-12-18T13:24:48;39.10;;;18.30;;
4961;SDS011;2496;52.468;13.342;2022-12-18T13:36:12;38.33;;;16.97;;
4961;SDS011;2496;52.468;13.342;2022-12-18T13:38:42;38.90;;;17.00;;
4961;SDS011;2496;52.468;13.342;2022-12-18T13:41:23;44.10;;;18.17;;
4961;SDS011;2496;52.468;13.342;2022-12-18T13:43:51;44.70;;;18.37;;
4961;SDS011;2496;52.468;13.342;2022-12-18T13:46:20;40.20;;;18.43;;
4961;SDS011;2496;52.468;13.342;2022-12-18T13:48:50;38.20;;;18.53;;
4961;SDS011;2496;52.468;13.342;2022-12-18T13:51:21;45.53;;;19.17;;
4961;SDS011;2496;52.468;13.342;2022-12-18T13:53:50;45.17;;;19.33;;
4961;SDS011;2496;52.468;13.342;2022-12-18T13:56:21;37.63;;;18.73;;
4961;SDS011;2496;52.468;13.342;2022-12-18T13:59:05;41.73;;;18.83;;
4961;SDS011;2496;52.468;13.342;2022-12-18T14:01:41;42.80;;;18.67;;
4961;SDS011;2496;52.468;13.342;2022-12-18T14:04:18;40.93;;;20.00;;
4961;SDS011;2496;52.468;13.342;2022-12-18T14:06:54;36.90;;;17.80;;
4961;SDS011;2496;52.468;13.342;2022-12-18T14:09:27;46.70;;;17.93;;
4961;SDS011;2496;52.468;13.342;2022-12-18T14:11:58;46.37;;;19.97;;
4961;SDS011;2496;52.468;13.342;2022-12-18T14:14:42;54.87;;;21.00;;
4961;SDS011;2496;52.468;13.342;2022-12-18T14:17:13;50.17;;;21.27;;
4961;SDS011;2496;52.468;13.342;2022-12-18T14:19:44;46.70;;;19.87;;
4961;SDS011;2496;52.468;13.342;2022-12-18T14:22:16;48.70;;;19.60;;
4961;SDS011;2496;52.468;13.342;2022-12-18T14:24:45;50.97;;;23.63;;
4961;SDS011;2496;52.468;13.342;2022-12-18T14:27:18;64.40;;;23.57;;
4961;SDS011;2496;52.468;13.342;2022-12-18T14:29:48;63.27;;;25.13;;
4961;SDS011;2496;52.468;13.342;2022-12-18T14:32:15;67.33;;;25.67;;
4961;SDS011;2496;52.468;13.342;2022-12-18T14:34:43;56.87;;;26.27;;
4961;SDS011;2496;52.468;13.342;2022-12-18T14:37:13;60.33;;;26.63;;
4961;SDS011;2496;52.468;13.342;2022-12-18T14:39:52;64.57;;;24.90;;
4961;SDS011;2496;52.468;13.342;2022-12-18T14:42:23;56.47;;;22.30;;
4961;SDS011;2496;52.468;13.342;2022-12-18T14:47:52;47.60;;;21.80;;
4961;SDS011;2496;52.468;13.342;2022-12-18T14:50:19;56.87;;;19.67;;
4961;SDS011;2496;52.468;13.342;2022-12-18T14:52:46;53.80;;;20.93;;
4961;SDS011;2496;52.468;13.342;2022-12-18T14:55:16;48.63;;;21.80;;
4961;SDS011;2496;52.468;13.342;2022-12-18T14:57:44;53.47;;;19.73;;
4961;SDS011;2496;52.468;13.342;2022-12-18T15:00:16;44.70;;;18.80;;
4961;SDS011;2496;52.468;13.342;2022-12-18T15:02:45;38.43;;;17.30;;
4961;SDS011;2496;52.468;13.342;2022-12-18T15:05:17;38.00;;;19.80;;
4961;SDS011;2496;52.468;13.342;2022-12-18T15:07:46;43.37;;;18.93;;